Terminal Aerodrome Forecast
Issued by NWS Glasgow, MT

Home | Current Version | Previous Version | Text Only | Print | Product List | Glossary On
Versions: 1 2 3 4 5 6 7 8 9 10 11 12
000
FTUS45 KGGW 270520
TAFGGW
TAF
KGGW 270520Z 2706/2806 VRB25G40KT 1SM +TSRA BKN060CB
     FM270800 09007KT 6SM -SHRA BKN060
     FM271000 08007KT P6SM VCSH BKN090
     FM280000 11006KT P6SM VCTS BKN060CB=

USA.gov is the U.S. government's official web portal to all federal, state and local government web resources and services.